sensor_id;sensor_type;location;lat;lon;timestamp;P1;durP1;ratioP1;P2;durP2;ratioP2
5345;SDS011;2695;49.444;11.054;2023-07-09T00:00:45;12.57;;;7.37;;
5345;SDS011;2695;49.444;11.054;2023-07-09T00:03:15;13.13;;;7.87;;
5345;SDS011;2695;49.444;11.054;2023-07-09T00:05:47;8.87;;;6.50;;
5345;SDS011;2695;49.444;11.054;2023-07-09T00:08:21;14.60;;;8.20;;
5345;SDS011;2695;49.444;11.054;2023-07-09T00:10:53;11.43;;;7.80;;
5345;SDS011;2695;49.444;11.054;2023-07-09T00:13:21;11.53;;;7.80;;
5345;SDS011;2695;49.444;11.054;2023-07-09T00:15:49;10.30;;;6.53;;
5345;SDS011;2695;49.444;11.054;2023-07-09T00:18:18;10.33;;;7.10;;
5345;SDS011;2695;49.444;11.054;2023-07-09T00:20:47;10.30;;;6.43;;
5345;SDS011;2695;49.444;11.054;2023-07-09T00:23:15;8.97;;;7.30;;
5345;SDS011;2695;49.444;11.054;2023-07-09T00:25:46;10.47;;;6.73;;
5345;SDS011;2695;49.444;11.054;2023-07-09T00:28:14;11.40;;;6.87;;
5345;SDS011;2695;49.444;11.054;2023-07-09T00:30:44;15.27;;;6.87;;
5345;SDS011;2695;49.444;11.054;2023-07-09T00:33:12;9.67;;;6.50;;
5345;SDS011;2695;49.444;11.054;2023-07-09T00:35:41;10.33;;;6.97;;
5345;SDS011;2695;49.444;11.054;2023-07-09T00:38:14;8.17;;;5.90;;
5345;SDS011;2695;49.444;11.054;2023-07-09T00:40:46;9.57;;;6.83;;
5345;SDS011;2695;49.444;11.054;2023-07-09T00:43:16;10.77;;;7.43;;
5345;SDS011;2695;49.444;11.054;2023-07-09T00:45:44;9.90;;;6.57;;
5345;SDS011;2695;49.444;11.054;2023-07-09T00:48:13;10.10;;;6.37;;
5345;SDS011;2695;49.444;11.054;2023-07-09T00:50:45;9.07;;;6.63;;
5345;SDS011;2695;49.444;11.054;2023-07-09T00:53:18;13.00;;;7.03;;
5345;SDS011;2695;49.444;11.054;2023-07-09T00:55:50;13.97;;;7.50;;
5345;SDS011;2695;49.444;11.054;2023-07-09T00:58:23;9.27;;;7.10;;
5345;SDS011;2695;49.444;11.054;2023-07-09T01:00:55;9.63;;;6.50;;
5345;SDS011;2695;49.444;11.054;2023-07-09T01:03:29;9.37;;;6.73;;
5345;SDS011;2695;49.444;11.054;2023-07-09T01:06:01;9.23;;;5.80;;
5345;SDS011;2695;49.444;11.054;2023-07-09T01:08:34;27.53;;;7.23;;
5345;SDS011;2695;49.444;11.054;2023-07-09T01:11:03;10.27;;;6.13;;
5345;SDS011;2695;49.444;11.054;2023-07-09T01:13:34;10.23;;;6.73;;
5345;SDS011;2695;49.444;11.054;2023-07-09T01:16:05;13.23;;;7.70;;
5345;SDS011;2695;49.444;11.054;2023-07-09T01:18:34;9.80;;;7.40;;
5345;SDS011;2695;49.444;11.054;2023-07-09T01:21:08;8.57;;;7.20;;
5345;SDS011;2695;49.444;11.054;2023-07-09T01:23:41;11.90;;;7.87;;
5345;SDS011;2695;49.444;11.054;2023-07-09T01:26:10;11.60;;;7.53;;
5345;SDS011;2695;49.444;11.054;2023-07-09T01:28:39;11.30;;;8.03;;
5345;SDS011;2695;49.444;11.054;2023-07-09T01:31:09;12.90;;;7.37;;
5345;SDS011;2695;49.444;11.054;2023-07-09T01:33:38;10.13;;;7.77;;
5345;SDS011;2695;49.444;11.054;2023-07-09T01:36:08;9.23;;;7.10;;
5345;SDS011;2695;49.444;11.054;2023-07-09T01:38:37;11.10;;;7.20;;
5345;SDS011;2695;49.444;11.054;2023-07-09T01:41:05;11.43;;;7.27;;
5345;SDS011;2695;49.444;11.054;2023-07-09T01:43:33;12.07;;;7.73;;
5345;SDS011;2695;49.444;11.054;2023-07-09T01:46:02;8.67;;;6.47;;
5345;SDS011;2695;49.444;11.054;2023-07-09T01:48:31;10.90;;;7.37;;
5345;SDS011;2695;49.444;11.054;2023-07-09T01:50:59;12.90;;;7.23;;
5345;SDS011;2695;49.444;11.054;2023-07-09T01:53:30;10.90;;;7.67;;
5345;SDS011;2695;49.444;11.054;2023-07-09T01:56:00;7.70;;;6.23;;
5345;SDS011;2695;49.444;11.054;2023-07-09T01:58:28;12.87;;;6.80;;
5345;SDS011;2695;49.444;11.054;2023-07-09T02:00:58;8.97;;;6.60;;
5345;SDS011;2695;49.444;11.054;2023-07-09T02:03:26;10.80;;;7.50;;
5345;SDS011;2695;49.444;11.054;2023-07-09T02:05:54;10.77;;;6.63;;
5345;SDS011;2695;49.444;11.054;2023-07-09T02:08:24;12.07;;;6.80;;
5345;SDS011;2695;49.444;11.054;2023-07-09T02:10:53;8.30;;;6.33;;
5345;SDS011;2695;49.444;11.054;2023-07-09T02:13:21;10.87;;;7.13;;
5345;SDS011;2695;49.444;11.054;2023-07-09T02:15:49;9.67;;;6.63;;
5345;SDS011;2695;49.444;11.054;2023-07-09T02:18:17;7.67;;;5.93;;
5345;SDS011;2695;49.444;11.054;2023-07-09T02:20:45;10.80;;;7.00;;
5345;SDS011;2695;49.444;11.054;2023-07-09T02:23:13;9.73;;;6.57;;
5345;SDS011;2695;49.444;11.054;2023-07-09T02:25:41;12.03;;;7.33;;
5345;SDS011;2695;49.444;11.054;2023-07-09T02:28:10;8.70;;;6.80;;
5345;SDS011;2695;49.444;11.054;2023-07-09T02:30:38;10.37;;;6.60;;
5345;SDS011;2695;49.444;11.054;2023-07-09T02:33:07;11.33;;;7.20;;
5345;SDS011;2695;49.444;11.054;2023-07-09T02:35:35;9.27;;;6.73;;
5345;SDS011;2695;49.444;11.054;2023-07-09T02:38:03;15.83;;;7.70;;
5345;SDS011;2695;49.444;11.054;2023-07-09T02:40:31;8.60;;;6.43;;
5345;SDS011;2695;49.444;11.054;2023-07-09T02:43:00;10.40;;;7.50;;
5345;SDS011;2695;49.444;11.054;2023-07-09T02:45:29;10.77;;;6.63;;
5345;SDS011;2695;49.444;11.054;2023-07-09T02:47:57;11.93;;;7.40;;
5345;SDS011;2695;49.444;11.054;2023-07-09T02:50:25;10.87;;;7.17;;
5345;SDS011;2695;49.444;11.054;2023-07-09T02:52:53;12.20;;;7.30;;
5345;SDS011;2695;49.444;11.054;2023-07-09T02:55:21;10.47;;;7.10;;
5345;SDS011;2695;49.444;11.054;2023-07-09T02:57:49;10.53;;;7.53;;
5345;SDS011;2695;49.444;11.054;2023-07-09T03:00:18;10.20;;;7.23;;
5345;SDS011;2695;49.444;11.054;2023-07-09T03:02:47;9.23;;;6.73;;
5345;SDS011;2695;49.444;11.054;2023-07-09T03:05:16;10.47;;;7.87;;
5345;SDS011;2695;49.444;11.054;2023-07-09T03:07:44;11.20;;;7.60;;
5345;SDS011;2695;49.444;11.054;2023-07-09T03:10:11;11.63;;;7.47;;
5345;SDS011;2695;49.444;11.054;2023-07-09T03:12:39;15.50;;;7.50;;
5345;SDS011;2695;49.444;11.054;2023-07-09T03:15:08;16.57;;;7.20;;
5345;SDS011;2695;49.444;11.054;2023-07-09T03:17:36;9.40;;;7.03;;
5345;SDS011;2695;49.444;11.054;2023-07-09T03:20:06;16.00;;;7.70;;
5345;SDS011;2695;49.444;11.054;2023-07-09T03:22:35;15.60;;;7.60;;
5345;SDS011;2695;49.444;11.054;2023-07-09T03:25:03;10.10;;;7.30;;
5345;SDS011;2695;49.444;11.054;2023-07-09T03:27:31;11.37;;;7.80;;
5345;SDS011;2695;49.444;11.054;2023-07-09T03:29:59;8.93;;;6.50;;
5345;SDS011;2695;49.444;11.054;2023-07-09T03:32:27;8.77;;;6.17;;
5345;SDS011;2695;49.444;11.054;2023-07-09T03:34:55;14.23;;;7.27;;
5345;SDS011;2695;49.444;11.054;2023-07-09T03:37:24;11.13;;;6.57;;
5345;SDS011;2695;49.444;11.054;2023-07-09T03:39:52;12.90;;;7.90;;
5345;SDS011;2695;49.444;11.054;2023-07-09T03:42:20;10.47;;;6.50;;
5345;SDS011;2695;49.444;11.054;2023-07-09T03:44:48;11.90;;;7.80;;
5345;SDS011;2695;49.444;11.054;2023-07-09T03:47:16;8.10;;;7.00;;
5345;SDS011;2695;49.444;11.054;2023-07-09T03:49:44;15.70;;;7.80;;
5345;SDS011;2695;49.444;11.054;2023-07-09T03:52:12;8.97;;;7.00;;
5345;SDS011;2695;49.444;11.054;2023-07-09T03:54:42;12.40;;;7.00;;
5345;SDS011;2695;49.444;11.054;2023-07-09T03:57:10;11.00;;;6.40;;
5345;SDS011;2695;49.444;11.054;2023-07-09T03:59:38;11.87;;;6.90;;
5345;SDS011;2695;49.444;11.054;2023-07-09T04:02:06;11.73;;;7.40;;
5345;SDS011;2695;49.444;11.054;2023-07-09T04:04:34;9.87;;;6.77;;
5345;SDS011;2695;49.444;11.054;2023-07-09T04:07:02;10.40;;;6.93;;
5345;SDS011;2695;49.444;11.054;2023-07-09T04:09:30;10.75;;;7.05;;
5345;SDS011;2695;49.444;11.054;2023-07-09T04:11:59;8.88;;;6.90;;
5345;SDS011;2695;49.444;11.054;2023-07-09T04:14:29;10.43;;;7.97;;
5345;SDS011;2695;49.444;11.054;2023-07-09T04:16:57;12.52;;;7.53;;
5345;SDS011;2695;49.444;11.054;2023-07-09T04:19:25;11.10;;;7.80;;
5345;SDS011;2695;49.444;11.054;2023-07-09T04:21:53;14.60;;;7.57;;
5345;SDS011;2695;49.444;11.054;2023-07-09T04:24:21;10.00;;;7.32;;
5345;SDS011;2695;49.444;11.054;2023-07-09T04:26:49;12.85;;;7.20;;
5345;SDS011;2695;49.444;11.054;2023-07-09T04:29:24;7.70;;;6.32;;
5345;SDS011;2695;49.444;11.054;2023-07-09T04:31:52;11.15;;;8.25;;
5345;SDS011;2695;49.444;11.054;2023-07-09T04:34:20;8.60;;;6.95;;
5345;SDS011;2695;49.444;11.054;2023-07-09T04:36:48;12.95;;;7.03;;
5345;SDS011;2695;49.444;11.054;2023-07-09T04:39:16;10.23;;;7.35;;
5345;SDS011;2695;49.444;11.054;2023-07-09T04:41:43;8.75;;;6.90;;
5345;SDS011;2695;49.444;11.054;2023-07-09T04:44:12;25.20;;;7.57;;
5345;SDS011;2695;49.444;11.054;2023-07-09T04:46:41;12.75;;;7.03;;
5345;SDS011;2695;49.444;11.054;2023-07-09T04:49:09;11.52;;;7.72;;
5345;SDS011;2695;49.444;11.054;2023-07-09T04:51:38;12.07;;;5.93;;
5345;SDS011;2695;49.444;11.054;2023-07-09T04:54:06;7.75;;;6.13;;
5345;SDS011;2695;49.444;11.054;2023-07-09T04:56:34;10.70;;;7.25;;
5345;SDS011;2695;49.444;11.054;2023-07-09T04:59:03;8.45;;;6.45;;
5345;SDS011;2695;49.444;11.054;2023-07-09T05:01:32;8.55;;;6.72;;
5345;SDS011;2695;49.444;11.054;2023-07-09T05:04:01;9.35;;;6.90;;
5345;SDS011;2695;49.444;11.054;2023-07-09T05:06:29;11.07;;;6.40;;
5345;SDS011;2695;49.444;11.054;2023-07-09T05:08:58;10.25;;;7.00;;
5345;SDS011;2695;49.444;11.054;2023-07-09T05:11:26;8.48;;;6.38;;
5345;SDS011;2695;49.444;11.054;2023-07-09T05:13:54;10.68;;;5.95;;
5345;SDS011;2695;49.444;11.054;2023-07-09T05:16:22;11.98;;;7.03;;
5345;SDS011;2695;49.444;11.054;2023-07-09T05:18:50;11.90;;;6.80;;
5345;SDS011;2695;49.444;11.054;2023-07-09T05:21:19;9.35;;;6.38;;
5345;SDS011;2695;49.444;11.054;2023-07-09T05:23:47;7.43;;;6.00;;
5345;SDS011;2695;49.444;11.054;2023-07-09T05:26:15;7.07;;;6.10;;
5345;SDS011;2695;49.444;11.054;2023-07-09T05:28:43;11.90;;;6.53;;
5345;SDS011;2695;49.444;11.054;2023-07-09T05:31:12;8.00;;;6.28;;
5345;SDS011;2695;49.444;11.054;2023-07-09T05:33:40;9.90;;;6.88;;
5345;SDS011;2695;49.444;11.054;2023-07-09T05:36:08;8.65;;;6.75;;
5345;SDS011;2695;49.444;11.054;2023-07-09T05:38:41;6.82;;;6.20;;
5345;SDS011;2695;49.444;11.054;2023-07-09T05:41:11;8.80;;;6.80;;
5345;SDS011;2695;49.444;11.054;2023-07-09T05:43:43;7.82;;;6.00;;
5345;SDS011;2695;49.444;11.054;2023-07-09T05:46:12;7.93;;;6.20;;
5345;SDS011;2695;49.444;11.054;2023-07-09T05:48:40;9.05;;;6.25;;
5345;SDS011;2695;49.444;11.054;2023-07-09T05:51:11;10.43;;;6.15;;
5345;SDS011;2695;49.444;11.054;2023-07-09T05:53:39;7.22;;;6.50;;
5345;SDS011;2695;49.444;11.054;2023-07-09T05:56:09;7.45;;;6.13;;
5345;SDS011;2695;49.444;11.054;2023-07-09T05:58:37;8.55;;;6.03;;
5345;SDS011;2695;49.444;11.054;2023-07-09T06:01:05;8.68;;;7.30;;
5345;SDS011;2695;49.444;11.054;2023-07-09T06:03:33;8.93;;;6.50;;
5345;SDS011;2695;49.444;11.054;2023-07-09T06:06:01;9.77;;;7.18;;
5345;SDS011;2695;49.444;11.054;2023-07-09T06:08:30;8.48;;;6.68;;
5345;SDS011;2695;49.444;11.054;2023-07-09T06:11:00;11.00;;;6.75;;
5345;SDS011;2695;49.444;11.054;2023-07-09T06:13:29;7.90;;;6.32;;
5345;SDS011;2695;49.444;11.054;2023-07-09T06:15:58;7.00;;;6.18;;
5345;SDS011;2695;49.444;11.054;2023-07-09T06:18:27;8.07;;;6.65;;
5345;SDS011;2695;49.444;11.054;2023-07-09T06:20:57;8.30;;;5.82;;
5345;SDS011;2695;49.444;11.054;2023-07-09T06:23:26;7.03;;;5.50;;
5345;SDS011;2695;49.444;11.054;2023-07-09T06:25:55;7.18;;;6.32;;
5345;SDS011;2695;49.444;11.054;2023-07-09T06:28:24;7.90;;;5.95;;
5345;SDS011;2695;49.444;11.054;2023-07-09T06:30:55;6.30;;;5.70;;
5345;SDS011;2695;49.444;11.054;2023-07-09T06:33:24;7.93;;;6.35;;
5345;SDS011;2695;49.444;11.054;2023-07-09T06:35:55;7.10;;;6.38;;
5345;SDS011;2695;49.444;11.054;2023-07-09T06:38:24;8.63;;;5.90;;
5345;SDS011;2695;49.444;11.054;2023-07-09T06:40:53;5.95;;;5.28;;
5345;SDS011;2695;49.444;11.054;2023-07-09T06:43:21;8.30;;;6.18;;
5345;SDS011;2695;49.444;11.054;2023-07-09T06:45:59;6.85;;;5.68;;
5345;SDS011;2695;49.444;11.054;2023-07-09T06:48:36;6.05;;;5.45;;
5345;SDS011;2695;49.444;11.054;2023-07-09T06:51:05;8.52;;;6.05;;
5345;SDS011;2695;49.444;11.054;2023-07-09T06:53:33;6.45;;;5.63;;
5345;SDS011;2695;49.444;11.054;2023-07-09T06:56:02;9.80;;;6.35;;
5345;SDS011;2695;49.444;11.054;2023-07-09T06:58:31;7.70;;;6.13;;
5345;SDS011;2695;49.444;11.054;2023-07-09T07:01:02;6.28;;;5.68;;
5345;SDS011;2695;49.444;11.054;2023-07-09T07:03:31;6.60;;;5.72;;
5345;SDS011;2695;49.444;11.054;2023-07-09T07:06:00;8.23;;;5.70;;
5345;SDS011;2695;49.444;11.054;2023-07-09T07:08:29;7.32;;;6.15;;
5345;SDS011;2695;49.444;11.054;2023-07-09T07:10:58;7.32;;;5.88;;
5345;SDS011;2695;49.444;11.054;2023-07-09T07:13:29;8.50;;;6.60;;
5345;SDS011;2695;49.444;11.054;2023-07-09T07:15:58;7.40;;;6.70;;
5345;SDS011;2695;49.444;11.054;2023-07-09T07:18:28;11.45;;;6.13;;
5345;SDS011;2695;49.444;11.054;2023-07-09T07:20:56;7.05;;;5.50;;
5345;SDS011;2695;49.444;11.054;2023-07-09T07:23:24;7.72;;;6.60;;
5345;SDS011;2695;49.444;11.054;2023-07-09T07:25:52;8.55;;;5.78;;
5345;SDS011;2695;49.444;11.054;2023-07-09T07:28:20;9.73;;;6.00;;
5345;SDS011;2695;49.444;11.054;2023-07-09T07:30:57;7.90;;;5.45;;
5345;SDS011;2695;49.444;11.054;2023-07-09T07:33:26;6.30;;;5.65;;
5345;SDS011;2695;49.444;11.054;2023-07-09T07:35:55;5.88;;;5.38;;
5345;SDS011;2695;49.444;11.054;2023-07-09T07:38:26;7.85;;;5.53;;
5345;SDS011;2695;49.444;11.054;2023-07-09T07:40:54;6.95;;;6.20;;
5345;SDS011;2695;49.444;11.054;2023-07-09T07:43:22;6.07;;;5.18;;
5345;SDS011;2695;49.444;11.054;2023-07-09T07:45:50;7.55;;;5.32;;
5345;SDS011;2695;49.444;11.054;2023-07-09T07:48:18;7.78;;;5.47;;
5345;SDS011;2695;49.444;11.054;2023-07-09T07:50:47;11.43;;;5.07;;
5345;SDS011;2695;49.444;11.054;2023-07-09T07:53:16;5.65;;;4.97;;
5345;SDS011;2695;49.444;11.054;2023-07-09T07:55:44;8.77;;;5.88;;
5345;SDS011;2695;49.444;11.054;2023-07-09T07:58:12;5.85;;;5.18;;
5345;SDS011;2695;49.444;11.054;2023-07-09T08:00:40;5.25;;;4.75;;
5345;SDS011;2695;49.444;11.054;2023-07-09T08:03:08;5.45;;;4.25;;
5345;SDS011;2695;49.444;11.054;2023-07-09T08:05:36;5.93;;;5.43;;
5345;SDS011;2695;49.444;11.054;2023-07-09T08:08:06;4.30;;;3.90;;
5345;SDS011;2695;49.444;11.054;2023-07-09T08:10:34;4.65;;;4.20;;
5345;SDS011;2695;49.444;11.054;2023-07-09T08:13:01;7.30;;;5.25;;
5345;SDS011;2695;49.444;11.054;2023-07-09T08:15:29;8.15;;;4.97;;
5345;SDS011;2695;49.444;11.054;2023-07-09T08:17:58;5.70;;;4.32;;
5345;SDS011;2695;49.444;11.054;2023-07-09T08:20:26;7.50;;;4.93;;
5345;SDS011;2695;49.444;11.054;2023-07-09T08:22:54;6.95;;;5.05;;
5345;SDS011;2695;49.444;11.054;2023-07-09T08:25:23;5.68;;;4.88;;
5345;SDS011;2695;49.444;11.054;2023-07-09T08:27:51;4.75;;;4.25;;
5345;SDS011;2695;49.444;11.054;2023-07-09T08:30:19;5.90;;;3.83;;
5345;SDS011;2695;49.444;11.054;2023-07-09T08:32:47;6.28;;;4.00;;
5345;SDS011;2695;49.444;11.054;2023-07-09T08:35:15;4.28;;;3.88;;
5345;SDS011;2695;49.444;11.054;2023-07-09T08:37:46;4.47;;;4.07;;
5345;SDS011;2695;49.444;11.054;2023-07-09T08:40:15;4.03;;;3.63;;
5345;SDS011;2695;49.444;11.054;2023-07-09T08:42:46;7.40;;;4.25;;
5345;SDS011;2695;49.444;11.054;2023-07-09T08:45:30;6.45;;;4.10;;
5345;SDS011;2695;49.444;11.054;2023-07-09T08:48:13;4.40;;;4.00;;
5345;SDS011;2695;49.444;11.054;2023-07-09T08:50:51;6.97;;;4.35;;
5345;SDS011;2695;49.444;11.054;2023-07-09T08:53:25;10.63;;;4.25;;
5345;SDS011;2695;49.444;11.054;2023-07-09T08:55:59;5.05;;;4.30;;
5345;SDS011;2695;49.444;11.054;2023-07-09T08:58:29;4.60;;;3.80;;
5345;SDS011;2695;49.444;11.054;2023-07-09T09:00:59;8.43;;;4.95;;
5345;SDS011;2695;49.444;11.054;2023-07-09T09:03:31;6.63;;;4.32;;
5345;SDS011;2695;49.444;11.054;2023-07-09T09:06:09;7.22;;;4.78;;
5345;SDS011;2695;49.444;11.054;2023-07-09T09:08:40;5.05;;;4.55;;
5345;SDS011;2695;49.444;11.054;2023-07-09T09:11:14;4.75;;;4.18;;
5345;SDS011;2695;49.444;11.054;2023-07-09T09:13:48;6.78;;;4.75;;
5345;SDS011;2695;49.444;11.054;2023-07-09T09:16:21;6.85;;;4.03;;
5345;SDS011;2695;49.444;11.054;2023-07-09T09:18:53;5.03;;;4.57;;
5345;SDS011;2695;49.444;11.054;2023-07-09T09:21:25;5.88;;;3.55;;
5345;SDS011;2695;49.444;11.054;2023-07-09T09:23:57;13.02;;;5.18;;
5345;SDS011;2695;49.444;11.054;2023-07-09T09:26:30;7.72;;;4.40;;
5345;SDS011;2695;49.444;11.054;2023-07-09T09:29:01;5.03;;;4.63;;
5345;SDS011;2695;49.444;11.054;2023-07-09T09:31:38;4.53;;;4.00;;
5345;SDS011;2695;49.444;11.054;2023-07-09T09:34:16;5.03;;;4.28;;
5345;SDS011;2695;49.444;11.054;2023-07-09T09:36:44;4.95;;;4.55;;
5345;SDS011;2695;49.444;11.054;2023-07-09T09:39:12;5.47;;;4.97;;
5345;SDS011;2695;49.444;11.054;2023-07-09T09:41:40;5.30;;;4.22;;
5345;SDS011;2695;49.444;11.054;2023-07-09T09:44:17;5.20;;;4.70;;
5345;SDS011;2695;49.444;11.054;2023-07-09T09:46:47;6.50;;;4.47;;
5345;SDS011;2695;49.444;11.054;2023-07-09T09:49:16;7.10;;;4.78;;
5345;SDS011;2695;49.444;11.054;2023-07-09T09:51:45;5.55;;;5.00;;
5345;SDS011;2695;49.444;11.054;2023-07-09T09:54:17;5.70;;;5.13;;
5345;SDS011;2695;49.444;11.054;2023-07-09T09:56:48;5.28;;;4.55;;
5345;SDS011;2695;49.444;11.054;2023-07-09T09:59:19;5.55;;;4.80;;
5345;SDS011;2695;49.444;11.054;2023-07-09T10:01:56;6.20;;;4.50;;
5345;SDS011;2695;49.444;11.054;2023-07-09T10:04:26;5.78;;;4.63;;
5345;SDS011;2695;49.444;11.054;2023-07-09T10:06:55;6.45;;;4.90;;
5345;SDS011;2695;49.444;11.054;2023-07-09T10:09:29;6.03;;;5.30;;
5345;SDS011;2695;49.444;11.054;2023-07-09T10:12:09;7.72;;;5.38;;
5345;SDS011;2695;49.444;11.054;2023-07-09T10:14:44;7.85;;;5.05;;
5345;SDS011;2695;49.444;11.054;2023-07-09T10:17:22;7.45;;;5.32;;
5345;SDS011;2695;49.444;11.054;2023-07-09T10:20:04;4.70;;;4.30;;
5345;SDS011;2695;49.444;11.054;2023-07-09T10:22:43;6.10;;;4.13;;
5345;SDS011;2695;49.444;11.054;2023-07-09T10:25:20;4.28;;;3.88;;
5345;SDS011;2695;49.444;11.054;2023-07-09T10:28:00;5.70;;;4.60;;
5345;SDS011;2695;49.444;11.054;2023-07-09T10:30:38;4.35;;;3.90;;
5345;SDS011;2695;49.444;11.054;2023-07-09T10:33:13;7.60;;;5.07;;
5345;SDS011;2695;49.444;11.054;2023-07-09T10:35:49;6.75;;;5.00;;
5345;SDS011;2695;49.444;11.054;2023-07-09T10:38:31;5.47;;;4.97;;
5345;SDS011;2695;49.444;11.054;2023-07-09T10:41:10;5.47;;;4.10;;
5345;SDS011;2695;49.444;11.054;2023-07-09T10:43:53;8.55;;;4.72;;
5345;SDS011;2695;49.444;11.054;2023-07-09T10:46:27;11.18;;;4.72;;
5345;SDS011;2695;49.444;11.054;2023-07-09T10:49:00;5.70;;;4.55;;
5345;SDS011;2695;49.444;11.054;2023-07-09T10:51:33;7.13;;;4.47;;
5345;SDS011;2695;49.444;11.054;2023-07-09T10:54:07;6.07;;;4.30;;
5345;SDS011;2695;49.444;11.054;2023-07-09T10:56:42;7.10;;;3.65;;
5345;SDS011;2695;49.444;11.054;2023-07-09T10:59:16;5.70;;;4.03;;
5345;SDS011;2695;49.444;11.054;2023-07-09T11:01:51;4.70;;;4.30;;
5345;SDS011;2695;49.444;11.054;2023-07-09T11:04:25;7.13;;;4.50;;
5345;SDS011;2695;49.444;11.054;2023-07-09T11:06:59;6.07;;;4.57;;
5345;SDS011;2695;49.444;11.054;2023-07-09T11:09:31;5.43;;;4.30;;
5345;SDS011;2695;49.444;11.054;2023-07-09T11:12:02;6.32;;;3.97;;
5345;SDS011;2695;49.444;11.054;2023-07-09T11:14:34;4.13;;;3.72;;
5345;SDS011;2695;49.444;11.054;2023-07-09T11:17:07;4.78;;;4.22;;
5345;SDS011;2695;49.444;11.054;2023-07-09T11:19:42;6.05;;;4.47;;
5345;SDS011;2695;49.444;11.054;2023-07-09T11:22:14;5.40;;;4.35;;
5345;SDS011;2695;49.444;11.054;2023-07-09T11:24:45;4.97;;;4.30;;
5345;SDS011;2695;49.444;11.054;2023-07-09T11:27:21;5.40;;;4.60;;
5345;SDS011;2695;49.444;11.054;2023-07-09T11:29:56;5.15;;;4.63;;
5345;SDS011;2695;49.444;11.054;2023-07-09T11:32:27;6.38;;;4.25;;
5345;SDS011;2695;49.444;11.054;2023-07-09T11:35:06;5.78;;;3.97;;
5345;SDS011;2695;49.444;11.054;2023-07-09T11:37:43;5.15;;;4.00;;
5345;SDS011;2695;49.444;11.054;2023-07-09T11:40:13;7.07;;;4.38;;
5345;SDS011;2695;49.444;11.054;2023-07-09T11:42:49;5.32;;;4.00;;
5345;SDS011;2695;49.444;11.054;2023-07-09T11:45:20;6.63;;;5.18;;
5345;SDS011;2695;49.444;11.054;2023-07-09T11:47:55;8.82;;;4.30;;
5345;SDS011;2695;49.444;11.054;2023-07-09T11:50:31;7.13;;;3.97;;
5345;SDS011;2695;49.444;11.054;2023-07-09T11:53:04;6.82;;;4.35;;
5345;SDS011;2695;49.444;11.054;2023-07-09T11:55:39;5.68;;;4.32;;
5345;SDS011;2695;49.444;11.054;2023-07-09T11:58:09;4.78;;;3.72;;
5345;SDS011;2695;49.444;11.054;2023-07-09T12:00:39;6.60;;;4.00;;
5345;SDS011;2695;49.444;11.054;2023-07-09T12:03:17;8.40;;;4.95;;
5345;SDS011;2695;49.444;11.054;2023-07-09T12:05:48;6.05;;;4.57;;
5345;SDS011;2695;49.444;11.054;2023-07-09T12:08:26;5.15;;;3.60;;
5345;SDS011;2695;49.444;11.054;2023-07-09T12:10:55;14.65;;;4.15;;
5345;SDS011;2695;49.444;11.054;2023-07-09T12:13:23;4.63;;;3.88;;
5345;SDS011;2695;49.444;11.054;2023-07-09T12:15:51;6.63;;;4.22;;
5345;SDS011;2695;49.444;11.054;2023-07-09T12:18:21;6.00;;;4.30;;
5345;SDS011;2695;49.444;11.054;2023-07-09T12:20:50;9.80;;;4.13;;
5345;SDS011;2695;49.444;11.054;2023-07-09T12:23:21;8.65;;;4.07;;
5345;SDS011;2695;49.444;11.054;2023-07-09T12:25:53;4.75;;;3.70;;
5345;SDS011;2695;49.444;11.054;2023-07-09T12:28:22;6.45;;;4.75;;
5345;SDS011;2695;49.444;11.054;2023-07-09T12:30:50;6.05;;;3.75;;
5345;SDS011;2695;49.444;11.054;2023-07-09T12:33:21;3.88;;;3.33;;
5345;SDS011;2695;49.444;11.054;2023-07-09T12:35:53;7.38;;;4.00;;
5345;SDS011;2695;49.444;11.054;2023-07-09T12:38:25;10.73;;;4.25;;
5345;SDS011;2695;49.444;11.054;2023-07-09T12:40:54;7.30;;;3.72;;
5345;SDS011;2695;49.444;11.054;2023-07-09T12:43:23;5.30;;;3.88;;
5345;SDS011;2695;49.444;11.054;2023-07-09T12:45:53;15.90;;;4.70;;
5345;SDS011;2695;49.444;11.054;2023-07-09T12:48:24;5.03;;;4.05;;
5345;SDS011;2695;49.444;11.054;2023-07-09T12:50:54;8.65;;;4.45;;
5345;SDS011;2695;49.444;11.054;2023-07-09T12:53:24;6.43;;;4.20;;
5345;SDS011;2695;49.444;11.054;2023-07-09T12:55:55;5.78;;;3.92;;
5345;SDS011;2695;49.444;11.054;2023-07-09T12:58:24;6.05;;;4.03;;
5345;SDS011;2695;49.444;11.054;2023-07-09T13:00:54;6.43;;;4.55;;
5345;SDS011;2695;49.444;11.054;2023-07-09T13:03:25;5.55;;;3.42;;
5345;SDS011;2695;49.444;11.054;2023-07-09T13:05:56;11.10;;;3.85;;
5345;SDS011;2695;49.444;11.054;2023-07-09T13:08:25;5.45;;;3.70;;
5345;SDS011;2695;49.444;11.054;2023-07-09T13:10:55;6.43;;;4.40;;
5345;SDS011;2695;49.444;11.054;2023-07-09T13:13:24;5.43;;;3.50;;
5345;SDS011;2695;49.444;11.054;2023-07-09T13:15:54;6.75;;;3.90;;
5345;SDS011;2695;49.444;11.054;2023-07-09T13:18:26;6.70;;;4.15;;
5345;SDS011;2695;49.444;11.054;2023-07-09T13:20:55;5.38;;;4.72;;
5345;SDS011;2695;49.444;11.054;2023-07-09T13:23:24;5.72;;;4.18;;
5345;SDS011;2695;49.444;11.054;2023-07-09T13:25:53;9.35;;;4.45;;
5345;SDS011;2695;49.444;11.054;2023-07-09T13:28:24;6.78;;;3.85;;
5345;SDS011;2695;49.444;11.054;2023-07-09T13:30:53;7.60;;;4.10;;
5345;SDS011;2695;49.444;11.054;2023-07-09T13:33:25;5.95;;;4.10;;
5345;SDS011;2695;49.444;11.054;2023-07-09T13:35:56;6.80;;;4.25;;
5345;SDS011;2695;49.444;11.054;2023-07-09T13:38:24;5.25;;;3.88;;
5345;SDS011;2695;49.444;11.054;2023-07-09T13:40:53;7.38;;;4.00;;
5345;SDS011;2695;49.444;11.054;2023-07-09T13:43:25;5.25;;;3.75;;
5345;SDS011;2695;49.444;11.054;2023-07-09T13:45:56;7.15;;;4.00;;
5345;SDS011;2695;49.444;11.054;2023-07-09T13:48:25;11.18;;;4.65;;
5345;SDS011;2695;49.444;11.054;2023-07-09T13:50:55;6.82;;;3.42;;
5345;SDS011;2695;49.444;11.054;2023-07-09T13:53:25;6.47;;;4.20;;
5345;SDS011;2695;49.444;11.054;2023-07-09T13:55:56;4.47;;;3.97;;
5345;SDS011;2695;49.444;11.054;2023-07-09T13:58:25;7.93;;;3.88;;
5345;SDS011;2695;49.444;11.054;2023-07-09T14:00:55;4.85;;;3.95;;
5345;SDS011;2695;49.444;11.054;2023-07-09T14:03:33;7.60;;;4.18;;
5345;SDS011;2695;49.444;11.054;2023-07-09T14:06:02;6.00;;;4.35;;
5345;SDS011;2695;49.444;11.054;2023-07-09T14:08:30;5.35;;;4.00;;
5345;SDS011;2695;49.444;11.054;2023-07-09T14:10:58;10.43;;;4.00;;
5345;SDS011;2695;49.444;11.054;2023-07-09T14:13:26;4.53;;;3.80;;
5345;SDS011;2695;49.444;11.054;2023-07-09T14:15:58;8.02;;;4.07;;
5345;SDS011;2695;49.444;11.054;2023-07-09T14:18:26;8.82;;;4.20;;
5345;SDS011;2695;49.444;11.054;2023-07-09T14:20:56;7.13;;;4.15;;
5345;SDS011;2695;49.444;11.054;2023-07-09T14:23:24;6.32;;;4.10;;
5345;SDS011;2695;49.444;11.054;2023-07-09T14:25:52;6.38;;;4.47;;
5345;SDS011;2695;49.444;11.054;2023-07-09T14:28:20;7.90;;;4.25;;
5345;SDS011;2695;49.444;11.054;2023-07-09T14:30:48;6.50;;;4.38;;
5345;SDS011;2695;49.444;11.054;2023-07-09T14:33:19;5.13;;;4.07;;
5345;SDS011;2695;49.444;11.054;2023-07-09T14:35:48;5.80;;;3.83;;
5345;SDS011;2695;49.444;11.054;2023-07-09T14:38:19;7.47;;;4.43;;
5345;SDS011;2695;49.444;11.054;2023-07-09T14:40:50;5.97;;;4.00;;
5345;SDS011;2695;49.444;11.054;2023-07-09T14:43:19;6.57;;;3.88;;
5345;SDS011;2695;49.444;11.054;2023-07-09T14:45:47;11.80;;;4.38;;
5345;SDS011;2695;49.444;11.054;2023-07-09T14:48:16;7.03;;;4.50;;
5345;SDS011;2695;49.444;11.054;2023-07-09T14:50:46;6.70;;;3.80;;
5345;SDS011;2695;49.444;11.054;2023-07-09T14:53:15;6.30;;;4.28;;
5345;SDS011;2695;49.444;11.054;2023-07-09T14:55:48;8.73;;;4.57;;
5345;SDS011;2695;49.444;11.054;2023-07-09T14:58:17;5.85;;;4.13;;
5345;SDS011;2695;49.444;11.054;2023-07-09T15:00:46;5.07;;;3.90;;
5345;SDS011;2695;49.444;11.054;2023-07-09T15:03:18;7.80;;;4.28;;
5345;SDS011;2695;49.444;11.054;2023-07-09T15:05:48;6.15;;;3.50;;
5345;SDS011;2695;49.444;11.054;2023-07-09T15:08:20;8.32;;;3.80;;
5345;SDS011;2695;49.444;11.054;2023-07-09T15:11:07;7.68;;;4.10;;
5345;SDS011;2695;49.444;11.054;2023-07-09T15:13:42;9.38;;;4.65;;
5345;SDS011;2695;49.444;11.054;2023-07-09T15:16:17;9.50;;;4.28;;